Portada
METAR-TAF:

METAR-TAF

Aeroports :

Tegucigalpa, Hondures

latitud: 14-03N, longitud: 087-13W, altitud: 994 m

Observació

L'informe es va fer fa 11 minuts, a les 13:00 UTC
Vent 4 kt del Nord
Temperatura 16°C
Humitat 94%
Pressió 1020 hPa
Visibilitat: 8000 m
Escasses núvols a una alçada de 800 ft
Núvols disperses a una alçada de 2600 ft

METAR: MHTG 091300Z 01004KT 8000 FEW008 SCT026 16/15 Q1020 A3012 NOSIG

Hora: 07:11 (13:11 UTC)

Pronòstic

L'informe es va fer fa 2 hores i 31 minuts, a les 10:40 UTC
Pronòstic vàlid del 09 a les 12 UTC al 10 a les 12 UTC
Vent 10 kt del Nord/Nord-Est
Visibilitat 10 km o més
Núvols disperses a una alçada de 2400 ft
Evolucionant progressivament
l' 10 a les 00 UTC al 10 a les 02 UTC
Cel ennuvolat a una alçada de 3000 ft
Evolucionant progressivament
l' 10 a les 06 UTC al 10 a les 08 UTC
Vent kt del Nord
Núvols disperses a una alçada de 2800 ft

TAF: MHTG 091040Z 0912/1012 02010KT 9999 SCT024 TX25/0920Z TN17/0912Z BECMG 1000/1002 BKN030 BECMG 1006/1008 00000KT SCT028

Observacions i pronòstics meteorològics de més de 4000 aeroports (METAR i TAF).

Les estacions disponibles són els punts grocs i vermells al mapa.

Posi el ratolí al punt desitjat per veure el nom de l'estació.

Feu clic per veure les observacions i els pronòstics meteorològics.

Per canviar el mapa: feu clic els botons verds amb una creu de color negre per apropar; al botó verd amb un guió per allunyar la imatge; o en les fletxes verdes per a mapes adjacents.


METAR-TAF: